Terminal Aerodrome Forecast
Issued by NWS Houston/Galveston, TX

Home | Current Version | Previous Version | Text Only | Print | Product List | Glossary On
Versions: 1 2 3 4 5 6 7 8 9 10 11 12 13 14 15 16 17 18 19 20 21 22 23 24 25 26 27 28 29 30 31 32 33 34 35 36 37 38 39 40 41 42 43 44 45 46 47 48 49 50
313
FTUS44 KHGX 260312 AAB
TAFCLL
TAF AMD
KCLL 260312Z 2603/2624 16008KT P6SM BKN025 BKN250
     FM260600 17005KT P6SM SCT007 OVC012
     FM261500 16010KT P6SM VCSH SCT007 BKN025
     FM261800 16014KT P6SM -RA VCTS SCT015 BKN030CB=

USA.gov is the U.S. government's official web portal to all federal, state and local government web resources and services.